createdAt,value
2017-08-02T00:00:11.962Z,23.54
2017-08-02T00:01:12.289Z,23.57
2017-08-02T00:02:12.327Z,23.51
2017-08-02T00:03:12.361Z,23.58
2017-08-02T00:04:12.361Z,23.57
2017-08-02T00:05:12.400Z,23.42
2017-08-02T00:06:12.110Z,23.39
2017-08-02T00:07:12.457Z,23.38
2017-08-02T00:08:12.487Z,23.32
2017-08-02T00:09:12.522Z,23.32
2017-08-02T00:10:12.518Z,23.32
2017-08-02T00:11:12.572Z,23.27
2017-08-02T00:12:27.179Z,23.35
2017-08-02T00:13:12.298Z,23.33
2017-08-02T00:14:12.633Z,23.28
2017-08-02T00:15:27.274Z,23.33
2017-08-02T00:16:12.699Z,23.33
2017-08-02T00:17:12.714Z,23.2
2017-08-02T00:18:27.355Z,23.12
2017-08-02T00:19:12.767Z,23.15
2017-08-02T00:20:12.810Z,23.04
2017-08-02T00:21:27.428Z,23.07
2017-08-02T00:22:12.557Z,23.15
2017-08-02T00:23:12.895Z,23.09
2017-08-02T00:24:12.910Z,23.1
2017-08-02T00:25:12.939Z,23.16
2017-08-02T00:26:12.958Z,23.07
2017-08-02T00:27:12.991Z,23.04
2017-08-02T00:28:27.307Z,23.05
2017-08-02T00:29:13.048Z,23.01
2017-08-02T00:30:13.068Z,23.04
2017-08-02T00:31:13.085Z,23.07
2017-08-02T00:32:13.125Z,23.05
2017-08-02T00:34:13.189Z,23
2017-08-02T00:35:13.201Z,23.01
2017-08-02T00:36:12.925Z,22.98
2017-08-02T00:37:13.255Z,23.01
2017-08-02T00:38:12.978Z,23
2017-08-02T00:39:13.325Z,23.01
2017-08-02T00:42:13.393Z,22.91
2017-08-02T00:43:28.010Z,22.95
2017-08-02T00:44:28.050Z,23
2017-08-02T00:45:13.470Z,22.95
2017-08-02T00:46:13.506Z,22.94
2017-08-02T00:47:13.221Z,22.94
2017-08-02T00:48:13.246Z,22.94
2017-08-02T00:49:13.577Z,22.94
2017-08-02T00:50:13.599Z,22.98
2017-08-02T00:51:13.629Z,23.01
2017-08-02T00:52:13.335Z,22.98
2017-08-02T00:53:13.683Z,23.01
2017-08-02T00:54:13.711Z,22.92
2017-08-02T00:55:13.754Z,22.91
2017-08-02T00:56:13.764Z,22.94
2017-08-02T00:57:13.785Z,22.88
2017-08-02T00:58:13.816Z,22.92
2017-08-02T00:59:13.845Z,22.92
2017-08-02T01:00:28.505Z,22.88
2017-08-02T01:01:13.887Z,22.91
2017-08-02T01:02:13.953Z,22.88
2017-08-02T01:03:13.953Z,22.9
2017-08-02T01:04:13.964Z,22.92
2017-08-02T01:05:28.617Z,22.91
2017-08-02T01:06:28.308Z,22.75
2017-08-02T01:07:14.052Z,22.76
2017-08-02T01:08:28.680Z,22.76
2017-08-02T01:09:14.101Z,22.77
2017-08-02T01:10:13.836Z,22.72
2017-08-02T01:11:14.152Z,22.7
2017-08-02T01:12:14.192Z,22.64
2017-08-02T01:13:14.204Z,22.68
2017-08-02T01:14:14.238Z,22.61
2017-08-02T01:15:28.868Z,22.57
2017-08-02T01:16:14.281Z,22.61
2017-08-02T01:17:14.320Z,22.61
2017-08-02T01:18:14.350Z,22.52
2017-08-02T01:19:14.378Z,22.54
2017-08-02T01:20:14.091Z,22.52
2017-08-02T01:21:14.429Z,22.47
2017-08-02T01:22:14.454Z,22.4
2017-08-02T01:23:14.460Z,22.46
2017-08-02T01:25:14.538Z,22.4
2017-08-02T01:26:14.548Z,22.3
2017-08-02T01:27:14.584Z,22.33
2017-08-02T01:28:14.606Z,22.35
2017-08-02T01:29:14.643Z,22.42
2017-08-02T01:30:14.705Z,22.43
2017-08-02T01:31:14.679Z,22.36
2017-08-02T01:32:14.731Z,22.37
2017-08-02T01:33:14.735Z,22.33
2017-08-02T01:34:14.775Z,22.36
2017-08-02T01:35:14.782Z,22.36
2017-08-02T01:36:14.515Z,22.24
2017-08-02T01:37:14.854Z,22.33
2017-08-02T01:38:14.565Z,22.27
2017-08-02T01:39:14.586Z,22.22
2017-08-02T01:40:14.613Z,22.22
2017-08-02T01:41:14.949Z,22.25
2017-08-02T01:42:14.977Z,22.25
2017-08-02T01:43:15.012Z,22.35
2017-08-02T01:44:15.036Z,22.35
2017-08-02T01:45:15.042Z,22.37
2017-08-02T01:46:15.090Z,22.31
2017-08-02T01:47:29.703Z,22.35
2017-08-02T01:48:15.141Z,22.28
2017-08-02T01:49:15.165Z,22.35
2017-08-02T01:50:15.198Z,22.35
2017-08-02T01:51:15.232Z,22.35
2017-08-02T01:52:15.247Z,22.33
2017-08-02T01:53:14.648Z,22.35
2017-08-02T01:54:29.895Z,22.35
2017-08-02T01:55:15.303Z,22.31
2017-08-02T01:57:14.749Z,22.36
2017-08-02T01:58:15.397Z,22.31
2017-08-02T01:59:15.431Z,22.35
2017-08-02T02:00:15.450Z,22.28
2017-08-02T02:01:15.180Z,22.21
2017-08-02T02:02:15.507Z,22.35
2017-08-02T02:03:29.824Z,22.28
2017-08-02T02:04:15.547Z,22.21
2017-08-02T02:06:30.217Z,22.17
2017-08-02T02:07:30.223Z,22.1
2017-08-02T02:08:15.663Z,22.06
2017-08-02T02:09:15.691Z,22.15
2017-08-02T02:10:15.709Z,22.09
2017-08-02T02:11:15.727Z,22.1
2017-08-02T02:12:30.364Z,22
2017-08-02T02:13:15.811Z,22.06
2017-08-02T02:14:15.810Z,22.06
2017-08-02T02:15:15.858Z,22
2017-08-02T02:16:15.864Z,22
2017-08-02T02:17:15.928Z,22.05
2017-08-02T02:20:15.672Z,22
2017-08-02T02:21:16.010Z,21.98
2017-08-02T02:22:30.618Z,21.88
2017-08-02T02:23:16.070Z,21.99
2017-08-02T02:24:15.767Z,21.99
2017-08-02T02:25:16.107Z,22
2017-08-02T02:26:16.146Z,22.03
2017-08-02T02:27:16.156Z,21.99
2017-08-02T02:28:30.785Z,22.06
2017-08-02T02:29:16.193Z,22.03
2017-08-02T02:30:30.837Z,21.92
2017-08-02T02:31:16.271Z,21.92
2017-08-02T02:32:16.306Z,22.02
2017-08-02T02:33:16.327Z,21.84
2017-08-02T02:34:16.350Z,21.92
2017-08-02T02:35:30.964Z,21.9
2017-08-02T02:36:16.401Z,22
2017-08-02T02:37:16.429Z,22.02
2017-08-02T02:38:16.433Z,22.05
2017-08-02T02:39:16.173Z,22
2017-08-02T02:40:16.495Z,22.03
2017-08-02T02:41:16.528Z,21.96
2017-08-02T02:42:16.554Z,22.02
2017-08-02T02:43:16.582Z,21.94
2017-08-02T02:44:16.620Z,21.9
2017-08-02T02:45:16.634Z,21.92
2017-08-02T02:46:16.667Z,21.8
2017-08-02T02:47:16.685Z,21.82
2017-08-02T02:48:16.705Z,21.82
2017-08-02T02:50:31.359Z,21.79
2017-08-02T02:51:16.788Z,21.83
2017-08-02T02:52:16.808Z,21.83
2017-08-02T02:53:16.840Z,21.83
2017-08-02T02:54:16.870Z,21.9
2017-08-02T02:55:16.888Z,21.86
2017-08-02T02:56:16.924Z,21.8
2017-08-02T02:57:31.542Z,21.83
2017-08-02T02:58:16.975Z,21.84
2017-08-02T02:59:17.000Z,21.79
2017-08-02T03:00:16.708Z,21.8
2017-08-02T03:01:17.046Z,21.71
2017-08-02T03:02:17.079Z,21.72
2017-08-02T03:03:17.107Z,21.72
2017-08-02T03:04:17.125Z,21.69
2017-08-02T03:05:17.158Z,21.71
2017-08-02T03:06:17.218Z,21.71
2017-08-02T03:07:17.212Z,21.68
2017-08-02T03:08:17.214Z,21.77
2017-08-02T03:09:17.261Z,21.71
2017-08-02T03:10:17.294Z,21.74
2017-08-02T03:11:17.312Z,21.79
2017-08-02T03:12:17.025Z,21.74
2017-08-02T03:13:17.354Z,21.77
2017-08-02T03:14:17.394Z,21.79
2017-08-02T03:15:17.418Z,21.79
2017-08-02T03:16:17.127Z,21.75
2017-08-02T03:17:17.159Z,21.72
2017-08-02T03:18:17.181Z,21.67
2017-08-02T03:19:17.220Z,21.69
2017-08-02T03:20:17.535Z,21.75
2017-08-02T03:21:17.566Z,21.77
2017-08-02T03:22:32.193Z,21.82
2017-08-02T03:23:17.313Z,21.8
2017-08-02T03:24:17.659Z,21.82
2017-08-02T03:25:17.673Z,21.72
2017-08-02T03:26:31.982Z,21.69
2017-08-02T03:27:17.741Z,21.61
2017-08-02T03:28:17.752Z,21.61
2017-08-02T03:29:17.785Z,21.54
2017-08-02T03:30:17.784Z,21.56
2017-08-02T03:31:17.847Z,21.43
2017-08-02T03:32:17.858Z,21.44
2017-08-02T03:34:17.910Z,21.43
2017-08-02T03:35:17.932Z,21.38
2017-08-02T03:36:17.972Z,21.38
2017-08-02T03:37:17.983Z,21.46
2017-08-02T03:38:32.614Z,21.46
2017-08-02T03:39:18.040Z,21.47
2017-08-02T03:40:17.743Z,21.4
2017-08-02T03:41:18.101Z,21.4
2017-08-02T03:42:17.805Z,21.47
2017-08-02T03:43:18.140Z,21.31
2017-08-02T03:44:18.160Z,21.4
2017-08-02T03:45:18.191Z,21.34
2017-08-02T03:46:18.215Z,21.31
2017-08-02T03:47:18.226Z,21.31
2017-08-02T03:49:18.285Z,21.28
2017-08-02T03:50:18.310Z,21.34
2017-08-02T03:51:18.344Z,21.22
2017-08-02T03:52:18.372Z,21.35
2017-08-02T03:53:18.099Z,21.42
2017-08-02T03:54:33.021Z,21.34
2017-08-02T03:55:18.149Z,21.35
2017-08-02T03:56:18.154Z,21.4
2017-08-02T03:57:18.502Z,21.47
2017-08-02T03:58:18.521Z,21.52
2017-08-02T04:00:18.589Z,21.47
2017-08-02T04:01:18.599Z,21.52
2017-08-02T04:02:18.625Z,21.53
2017-08-02T04:03:18.644Z,21.49
2017-08-02T04:04:18.712Z,21.62
2017-08-02T04:05:18.696Z,21.58
2017-08-02T04:06:18.421Z,21.59
2017-08-02T04:07:18.453Z,21.67
2017-08-02T04:09:18.806Z,21.68
2017-08-02T04:10:33.432Z,21.8
2017-08-02T04:11:18.867Z,21.9
2017-08-02T04:12:18.892Z,21.9
2017-08-02T04:13:18.904Z,21.91
2017-08-02T04:14:18.933Z,21.96
2017-08-02T04:15:18.962Z,22
2017-08-02T04:17:19.033Z,22
2017-08-02T04:18:19.045Z,22.14
2017-08-02T04:19:33.670Z,22.1
2017-08-02T04:20:19.090Z,22.18
2017-08-02T04:21:19.122Z,22.06
2017-08-02T04:22:19.131Z,22.12
2017-08-02T04:23:19.181Z,22.09
2017-08-02T04:24:19.204Z,22.12
2017-08-02T04:25:33.817Z,22.27
2017-08-02T04:26:19.256Z,22.24
2017-08-02T04:27:19.283Z,22.3
2017-08-02T04:28:19.303Z,22.42
2017-08-02T04:29:19.323Z,22.4
2017-08-02T04:30:19.368Z,22.49
2017-08-02T04:31:19.383Z,22.31
2017-08-02T04:32:34.013Z,22.36
2017-08-02T04:33:19.419Z,22.4
2017-08-02T04:34:34.061Z,22.4
2017-08-02T04:35:34.081Z,22.47
2017-08-02T04:36:19.515Z,22.55
2017-08-02T04:37:19.525Z,22.39
2017-08-02T04:38:19.563Z,22.4
2017-08-02T04:39:19.590Z,22.54
2017-08-02T04:40:19.309Z,22.45
2017-08-02T04:41:19.643Z,22.55
2017-08-02T04:42:19.677Z,22.58
2017-08-02T04:43:19.697Z,22.67
2017-08-02T04:44:19.713Z,22.43
2017-08-02T04:45:19.747Z,22.36
2017-08-02T04:46:19.782Z,22.35
2017-08-02T04:47:19.809Z,22.39
2017-08-02T04:48:19.829Z,22.42
2017-08-02T04:49:19.871Z,22.4
2017-08-02T04:50:19.877Z,22.3
2017-08-02T04:51:19.893Z,22.2
2017-08-02T04:52:19.617Z,22.27
2017-08-02T04:53:19.960Z,22.28
2017-08-02T04:54:19.995Z,22.17
2017-08-02T04:55:20.013Z,22.25
2017-08-02T04:56:34.645Z,22.28
2017-08-02T04:58:20.074Z,22.1
2017-08-02T04:59:20.113Z,22.2
2017-08-02T05:00:19.845Z,22.27
2017-08-02T05:01:20.172Z,22.3
2017-08-02T05:02:20.194Z,22.43
2017-08-02T05:03:20.225Z,22.4
2017-08-02T05:04:19.942Z,22.47
2017-08-02T05:05:20.263Z,22.6
2017-08-02T05:07:20.312Z,22.65
2017-08-02T05:08:20.346Z,22.72
2017-08-02T05:09:20.388Z,22.58
2017-08-02T05:10:20.408Z,22.67
2017-08-02T05:11:20.443Z,22.95
2017-08-02T05:12:35.051Z,23.25
2017-08-02T05:13:35.088Z,23.68
2017-08-02T05:14:20.519Z,24.08
2017-08-02T05:15:20.237Z,24.42
2017-08-02T05:16:20.570Z,24.9
2017-08-02T05:17:20.608Z,25.38
2017-08-02T05:19:20.662Z,25.51
2017-08-02T05:20:20.692Z,25.39
2017-08-02T05:22:20.744Z,25.55
2017-08-02T05:23:20.779Z,26.06
2017-08-02T05:24:20.792Z,26.32
2017-08-02T05:25:20.833Z,26.3
2017-08-02T05:26:20.853Z,26.62
2017-08-02T05:27:20.891Z,26.73
2017-08-02T05:28:20.924Z,26.35
2017-08-02T05:29:35.537Z,26.23
2017-08-02T05:30:20.663Z,26.28
2017-08-02T05:31:20.998Z,26.45
2017-08-02T05:33:21.062Z,26.6
2017-08-02T05:35:21.128Z,27.07
2017-08-02T05:36:21.146Z,27.19
2017-08-02T05:37:21.234Z,27.66
2017-08-02T05:38:21.190Z,27.97
2017-08-02T05:39:21.243Z,28.33
2017-08-02T05:40:21.267Z,28.49
2017-08-02T05:41:21.306Z,28.41
2017-08-02T05:42:21.338Z,28.33
2017-08-02T05:43:21.361Z,28.89
2017-08-02T05:44:21.410Z,28.78
2017-08-02T05:45:36.025Z,28.89
2017-08-02T05:46:21.451Z,28.95
2017-08-02T05:47:21.489Z,29
2017-08-02T05:48:21.524Z,29.65
2017-08-02T05:49:21.558Z,29.85
2017-08-02T05:50:21.602Z,30.02
2017-08-02T05:51:21.619Z,30.16
2017-08-02T05:52:21.658Z,30.29
2017-08-02T05:53:21.697Z,30.11
2017-08-02T05:54:21.722Z,30.54
2017-08-02T05:55:21.753Z,29.83
2017-08-02T05:56:21.845Z,30.05
2017-08-02T05:57:21.824Z,30.58
2017-08-02T05:58:21.859Z,30.57
2017-08-02T05:59:21.595Z,30.69
2017-08-02T06:00:36.525Z,31.29
2017-08-02T06:01:21.964Z,31.41
2017-08-02T06:02:22.001Z,31.28
2017-08-02T06:03:22.027Z,30.92
2017-08-02T06:04:22.049Z,31.28
2017-08-02T06:05:22.103Z,31.19
2017-08-02T06:06:22.132Z,31.23
2017-08-02T06:07:22.170Z,30.77
2017-08-02T06:08:36.805Z,30.57
2017-08-02T06:10:22.295Z,30.76
2017-08-02T06:11:22.317Z,31.26
2017-08-02T06:12:22.376Z,31.5
2017-08-02T06:13:22.375Z,32.11
2017-08-02T06:14:22.420Z,31.57
2017-08-02T06:15:22.142Z,30.69
2017-08-02T06:16:22.479Z,29.92
2017-08-02T06:17:22.523Z,29.46
2017-08-02T06:18:22.546Z,29.36
2017-08-02T06:19:22.597Z,29.63
2017-08-02T06:20:22.634Z,30.32
2017-08-02T06:21:22.670Z,30.95
2017-08-02T06:22:22.389Z,31.35
2017-08-02T06:24:22.823Z,32.07
2017-08-02T06:25:22.813Z,32.29
2017-08-02T06:26:22.825Z,32.72
2017-08-02T06:27:22.894Z,32.79
2017-08-02T06:28:22.906Z,32.38
2017-08-02T06:29:22.964Z,32.22
2017-08-02T06:30:22.981Z,31.91
2017-08-02T06:31:23.022Z,31.5
2017-08-02T06:32:37.651Z,31.07
2017-08-02T06:33:23.085Z,30.58
2017-08-02T06:34:22.824Z,30.26
2017-08-02T06:35:37.774Z,29.68
2017-08-02T06:36:23.204Z,29.43
2017-08-02T06:37:37.837Z,29.74
2017-08-02T06:38:23.268Z,29.94
2017-08-02T06:39:23.300Z,30.47
2017-08-02T06:40:23.336Z,31.07
2017-08-02T06:41:23.378Z,31.31
2017-08-02T06:42:23.408Z,31.76
2017-08-02T06:43:23.452Z,31.51
2017-08-02T06:44:23.517Z,30.2
2017-08-02T06:45:23.518Z,30.16
2017-08-02T06:46:23.533Z,29.85
2017-08-02T06:47:23.578Z,29.74
2017-08-02T06:48:38.205Z,30.11
2017-08-02T06:49:23.638Z,29.92
2017-08-02T06:50:23.664Z,29.53
2017-08-02T06:51:23.427Z,29.65
2017-08-02T06:52:23.744Z,29.45
2017-08-02T06:54:23.807Z,29.27
2017-08-02T06:55:23.867Z,28.76
2017-08-02T06:56:23.890Z,28.73
2017-08-02T06:57:23.929Z,28.71
2017-08-02T06:58:23.653Z,28.39
2017-08-02T06:59:23.675Z,27.88
2017-08-02T07:00:23.715Z,27.72
2017-08-02T07:01:23.741Z,27.75
2017-08-02T07:03:24.117Z,27.85
2017-08-02T07:04:38.749Z,27.94
2017-08-02T07:06:24.198Z,27.81
2017-08-02T07:07:24.246Z,27.75
2017-08-02T07:08:24.286Z,27.65
2017-08-02T07:09:24.310Z,27.67
2017-08-02T07:10:24.339Z,27.74
2017-08-02T07:11:24.358Z,27.72
2017-08-02T07:12:24.091Z,27.66
2017-08-02T07:13:24.432Z,27.6
2017-08-02T07:14:24.462Z,27.69
2017-08-02T07:15:24.498Z,27.7
2017-08-02T07:16:24.556Z,27.44
2017-08-02T07:17:24.538Z,27.43
2017-08-02T07:18:24.595Z,27.28
2017-08-02T07:19:24.305Z,27.24
2017-08-02T07:20:38.942Z,27.72
2017-08-02T07:21:24.687Z,28.56
2017-08-02T07:22:24.734Z,28.98
2017-08-02T07:23:24.728Z,29.46
2017-08-02T07:24:24.787Z,29.61
2017-08-02T07:25:39.431Z,29.82
2017-08-02T07:26:24.891Z,29.98
2017-08-02T07:27:24.878Z,29.85
2017-08-02T07:29:24.938Z,30.19
2017-08-02T07:30:24.967Z,30.31
2017-08-02T07:31:25.010Z,30.11
2017-08-02T07:32:25.037Z,30.31
2017-08-02T07:33:25.080Z,30.26
2017-08-02T07:34:25.105Z,30.64
2017-08-02T07:36:25.174Z,31.5
2017-08-02T07:37:24.887Z,31.73
2017-08-02T07:38:24.928Z,31.96
2017-08-02T07:39:24.942Z,31.99
2017-08-02T07:40:25.296Z,31.96
2017-08-02T07:42:25.358Z,31.25
2017-08-02T07:43:25.408Z,30.8
2017-08-02T07:44:25.129Z,30.6
2017-08-02T07:45:25.149Z,30.45
2017-08-02T07:46:25.194Z,30.46
2017-08-02T07:47:25.530Z,30.62
2017-08-02T07:48:25.565Z,30.22
2017-08-02T07:49:25.585Z,30.11
2017-08-02T07:50:25.655Z,29.94
2017-08-02T07:51:25.670Z,29.42
2017-08-02T07:52:25.680Z,29.51
2017-08-02T07:53:25.725Z,29.63
2017-08-02T07:54:25.740Z,29.55
2017-08-02T07:55:25.491Z,29.57
2017-08-02T07:56:25.816Z,29.68
2017-08-02T07:57:25.869Z,29.31
2017-08-02T07:58:25.889Z,28.7
2017-08-02T07:59:25.604Z,28.43
2017-08-02T08:00:25.950Z,28.64
2017-08-02T08:01:25.988Z,28.89
2017-08-02T08:02:25.719Z,28.85
2017-08-02T08:03:26.046Z,29.04
2017-08-02T08:04:26.092Z,29.28
2017-08-02T08:05:25.806Z,29.49
2017-08-02T08:06:25.844Z,29.49
2017-08-02T08:08:25.904Z,29.42
2017-08-02T08:09:25.936Z,29.46
2017-08-02T08:10:26.281Z,29.27
2017-08-02T08:11:25.996Z,29.52
2017-08-02T08:13:26.365Z,30.07
2017-08-02T08:14:26.463Z,30.31
2017-08-02T08:15:26.138Z,30.55
2017-08-02T08:16:26.466Z,30.24
2017-08-02T08:17:41.104Z,29.71
2017-08-02T08:18:26.540Z,29.33
2017-08-02T08:19:26.559Z,28.54
2017-08-02T08:20:26.609Z,28.07
2017-08-02T08:21:26.629Z,27.66
2017-08-02T08:22:26.663Z,27.72
2017-08-02T08:23:41.291Z,27.94
2017-08-02T08:25:26.762Z,28.25
2017-08-02T08:26:26.476Z,28.44
2017-08-02T08:27:26.832Z,28.49
2017-08-02T08:28:26.548Z,28.64
2017-08-02T08:29:26.906Z,28.59
2017-08-02T08:30:26.915Z,28.88
2017-08-02T08:31:26.958Z,28.93
2017-08-02T08:32:26.965Z,28.9
2017-08-02T08:33:41.618Z,29.45
2017-08-02T08:35:26.790Z,30.15
2017-08-02T08:36:27.116Z,30.11
2017-08-02T08:37:26.822Z,30.05
2017-08-02T08:38:26.877Z,30.24
2017-08-02T08:39:41.798Z,30.24
2017-08-02T08:40:27.248Z,30.23
2017-08-02T08:41:26.962Z,30.38
2017-08-02T08:42:27.308Z,30.38
2017-08-02T08:43:27.009Z,30.31
2017-08-02T08:44:27.057Z,30.01
2017-08-02T08:45:27.382Z,30.05
2017-08-02T08:46:27.124Z,30.08
2017-08-02T08:47:27.153Z,30.15
2017-08-02T08:48:27.496Z,30.24
2017-08-02T08:49:27.529Z,30.29
2017-08-02T08:50:27.230Z,30.29
2017-08-02T08:51:27.586Z,30.35
2017-08-02T08:52:27.610Z,30.39
2017-08-02T08:53:27.663Z,30.64
2017-08-02T08:54:27.690Z,31.1
2017-08-02T08:55:42.299Z,31.21
2017-08-02T08:56:27.749Z,31.34
2017-08-02T08:57:27.804Z,31.46
2017-08-02T08:58:27.799Z,31.07
2017-08-02T08:59:27.831Z,31.19
2017-08-02T09:00:27.864Z,31.68
2017-08-02T09:01:27.598Z,31.72
2017-08-02T09:02:27.930Z,31.92
2017-08-02T09:03:27.660Z,31.86
2017-08-02T09:04:27.682Z,31.72
2017-08-02T09:05:28.036Z,31.56
2017-08-02T09:06:28.059Z,31.23
2017-08-02T09:07:28.108Z,30.89
2017-08-02T09:08:28.127Z,31.02
2017-08-02T09:09:28.144Z,30.77
2017-08-02T09:10:42.777Z,30.76
2017-08-02T09:11:27.920Z,30.69
2017-08-02T09:12:28.261Z,30.62
2017-08-02T09:14:42.923Z,30.37
2017-08-02T09:15:28.036Z,30.54
2017-08-02T09:16:28.387Z,30.8
2017-08-02T09:17:28.407Z,31.31
2017-08-02T09:18:28.460Z,31.73
2017-08-02T09:19:28.473Z,32.32
2017-08-02T09:20:28.521Z,32.56
2017-08-02T09:21:28.239Z,33.16
2017-08-02T09:22:28.586Z,33.54
2017-08-02T09:23:28.604Z,33.37
2017-08-02T09:24:28.629Z,33.54
2017-08-02T09:25:28.360Z,33.95
2017-08-02T09:26:28.396Z,34.42
2017-08-02T09:27:28.753Z,34.31
2017-08-02T09:28:28.764Z,34.27
2017-08-02T09:29:28.831Z,34.19
2017-08-02T09:30:28.834Z,33.79
2017-08-02T09:31:28.261Z,34.02
2017-08-02T09:32:28.585Z,34.08
2017-08-02T09:33:28.947Z,34.7
2017-08-02T09:34:28.676Z,34.88
2017-08-02T09:35:29.008Z,34.66
2017-08-02T09:36:29.046Z,34.39
2017-08-02T09:37:29.086Z,34.08
2017-08-02T09:38:29.095Z,33.95
2017-08-02T09:39:29.151Z,33.76
2017-08-02T09:41:28.896Z,33.19
2017-08-02T09:43:29.269Z,32.69
2017-08-02T09:44:29.310Z,32.32
2017-08-02T09:45:29.351Z,32.18
2017-08-02T09:46:29.392Z,31.99
2017-08-02T09:47:29.402Z,31.73
2017-08-02T09:48:29.137Z,31.36
2017-08-02T09:49:29.486Z,31.07
2017-08-02T09:50:29.201Z,30.76
2017-08-02T09:51:29.230Z,30.72
2017-08-02T09:52:29.570Z,30.47
2017-08-02T09:53:29.605Z,30.43
2017-08-02T09:54:29.630Z,30.29
2017-08-02T09:55:29.375Z,30.02
2017-08-02T09:56:29.705Z,29.97
2017-08-02T09:57:29.429Z,29.71
2017-08-02T09:58:44.377Z,29.58
2017-08-02T09:59:29.497Z,29.67
2017-08-02T10:00:29.522Z,29.94
2017-08-02T10:01:29.866Z,30.27
2017-08-02T10:02:29.891Z,30.6
2017-08-02T10:03:29.624Z,30.79
2017-08-02T10:04:29.943Z,31.14
2017-08-02T10:05:29.993Z,31.57
2017-08-02T10:06:44.620Z,32.06
2017-08-02T10:07:30.057Z,32.25
2017-08-02T10:08:30.097Z,33.11
2017-08-02T10:09:30.111Z,33.44
2017-08-02T10:10:30.159Z,33.61
2017-08-02T10:11:30.181Z,33.94
2017-08-02T10:12:30.238Z,33.88
2017-08-02T10:13:30.238Z,33.81
2017-08-02T10:14:44.889Z,34.09
2017-08-02T10:15:30.313Z,33.93
2017-08-02T10:16:30.359Z,33.63
2017-08-02T10:17:44.984Z,32.72
2017-08-02T10:18:30.392Z,32.5
2017-08-02T10:19:30.447Z,32.19
2017-08-02T10:20:44.756Z,31.81
2017-08-02T10:21:30.204Z,31.66
2017-08-02T10:22:30.556Z,31.8
2017-08-02T10:23:30.601Z,31.93
2017-08-02T10:24:30.598Z,32.03
2017-08-02T10:25:30.325Z,32.1
2017-08-02T10:26:30.371Z,31.91
2017-08-02T10:27:30.396Z,31.46
2017-08-02T10:29:30.763Z,31.43
2017-08-02T10:30:45.404Z,31.46
2017-08-02T10:32:30.879Z,31.26
2017-08-02T10:33:30.889Z,31.07
2017-08-02T10:34:30.941Z,30.95
2017-08-02T10:35:45.568Z,30.58
2017-08-02T10:36:31.000Z,30.31
2017-08-02T10:37:31.021Z,30.16
2017-08-02T10:38:30.760Z,30.02
2017-08-02T10:39:31.093Z,29.94
2017-08-02T10:40:30.819Z,29.83
2017-08-02T10:41:30.834Z,29.7
2017-08-02T10:42:30.872Z,29.83
2017-08-02T10:43:30.899Z,30.04
2017-08-02T10:44:31.247Z,30.07
2017-08-02T10:45:45.871Z,30.07
2017-08-02T10:46:31.308Z,30.34
2017-08-02T10:47:31.345Z,30.53
2017-08-02T10:48:31.387Z,30.89
2017-08-02T10:49:31.416Z,31.43
2017-08-02T10:50:31.444Z,31.51
2017-08-02T10:51:31.474Z,31.47
2017-08-02T10:52:31.485Z,31.38
2017-08-02T10:53:31.542Z,31.07
2017-08-02T10:54:31.569Z,31.32
2017-08-02T10:55:31.615Z,31.04
2017-08-02T10:56:31.624Z,30.94
2017-08-02T10:57:45.956Z,30.7
2017-08-02T10:58:46.294Z,30.64
2017-08-02T10:59:31.416Z,30.65
2017-08-02T11:00:31.758Z,30.38
2017-08-02T11:01:31.487Z,30.29
2017-08-02T11:02:31.801Z,30.34
2017-08-02T11:03:31.545Z,30.27
2017-08-02T11:04:31.578Z,30.07
2017-08-02T11:05:31.603Z,30.16
2017-08-02T11:06:31.640Z,30.26
2017-08-02T11:07:31.663Z,30.01
2017-08-02T11:08:32.016Z,30.04
2017-08-02T11:09:32.033Z,30.15
2017-08-02T11:11:31.780Z,30.27
2017-08-02T11:12:32.147Z,30.24
2017-08-02T11:13:32.170Z,30.11
2017-08-02T11:14:32.182Z,30.1
2017-08-02T11:15:32.237Z,30.02
2017-08-02T11:17:46.880Z,30.13
2017-08-02T11:18:32.012Z,30.19
2017-08-02T11:19:32.048Z,30
2017-08-02T11:20:32.081Z,30
2017-08-02T11:21:32.418Z,29.86
2017-08-02T11:22:32.147Z,30.04
2017-08-02T11:23:31.861Z,29.98
2017-08-02T11:24:31.879Z,30.05
2017-08-02T11:25:32.238Z,30.17
2017-08-02T11:26:32.265Z,30.08
2017-08-02T11:27:32.597Z,30.34
2017-08-02T11:28:32.631Z,30.76
2017-08-02T11:29:32.654Z,30.39
2017-08-02T11:30:32.085Z,30.49
2017-08-02T11:31:32.706Z,30.29
2017-08-02T11:32:32.764Z,30.16
2017-08-02T11:33:47.398Z,30.2
2017-08-02T11:34:32.829Z,30.35
2017-08-02T11:35:32.844Z,30.34
2017-08-02T11:36:32.890Z,30.34
2017-08-02T11:37:47.523Z,29.97
2017-08-02T11:38:32.937Z,29.79
2017-08-02T11:39:33.270Z,29.79
2017-08-02T11:40:32.692Z,29.67
2017-08-02T11:41:33.048Z,29.68
2017-08-02T11:42:33.073Z,29.71
2017-08-02T11:43:32.790Z,29.85
2017-08-02T11:44:33.137Z,29.97
2017-08-02T11:45:33.169Z,30.02
2017-08-02T11:46:33.179Z,29.92
2017-08-02T11:47:33.238Z,30.15
2017-08-02T11:48:33.255Z,30.19
2017-08-02T11:49:47.892Z,30.15
2017-08-02T11:50:32.684Z,30.43
2017-08-02T11:51:33.354Z,30.58
2017-08-02T11:53:33.416Z,30.47
2017-08-02T11:54:33.444Z,30.69
2017-08-02T11:55:33.488Z,30.77
2017-08-02T11:56:32.883Z,30.83
2017-08-02T11:57:33.536Z,30.97
2017-08-02T11:58:33.554Z,31.07
2017-08-02T11:59:33.617Z,30.95
2017-08-02T12:00:33.640Z,31.06
2017-08-02T12:01:33.668Z,31.1
2017-08-02T12:02:48.287Z,31.16
2017-08-02T12:03:33.718Z,31.16
2017-08-02T12:04:33.449Z,30.92
2017-08-02T12:05:48.072Z,31.04
2017-08-02T12:06:33.821Z,31.07
2017-08-02T12:07:33.870Z,31.07
2017-08-02T12:08:33.877Z,30.97
2017-08-02T12:09:33.912Z,31.1
2017-08-02T12:10:33.933Z,31.28
2017-08-02T12:11:33.985Z,31.04
2017-08-02T12:12:33.998Z,30.86
2017-08-02T12:14:34.072Z,30.88
2017-08-02T12:15:34.111Z,30.79
2017-08-02T12:16:48.729Z,31.09
2017-08-02T12:17:34.161Z,31.02
2017-08-02T12:18:34.181Z,30.92
2017-08-02T12:19:34.228Z,31.02
2017-08-02T12:20:48.859Z,30.88
2017-08-02T12:21:34.287Z,30.99
2017-08-02T12:23:34.377Z,30.83
2017-08-02T12:24:34.381Z,30.53
2017-08-02T12:25:34.410Z,30.57
2017-08-02T12:26:34.441Z,30.64
2017-08-02T12:27:34.471Z,30.49
2017-08-02T12:28:34.512Z,30.65
2017-08-02T12:29:34.540Z,30.75
2017-08-02T12:30:34.258Z,30.82
2017-08-02T12:32:34.335Z,30.72
2017-08-02T12:33:34.666Z,30.69
2017-08-02T12:34:34.695Z,30.37
2017-08-02T12:35:49.016Z,30.01
2017-08-02T12:37:34.476Z,30.11
2017-08-02T12:38:34.498Z,30.1
2017-08-02T12:39:34.860Z,30.22
2017-08-02T12:40:34.867Z,30.17
2017-08-02T12:41:34.614Z,30.39
2017-08-02T12:42:49.543Z,30.76
2017-08-02T12:43:34.666Z,30.77
2017-08-02T12:44:35.012Z,30.94
2017-08-02T12:45:35.032Z,30.98
2017-08-02T12:46:35.073Z,30.69
2017-08-02T12:47:35.105Z,30.88
2017-08-02T12:48:34.809Z,30.92
2017-08-02T12:49:34.856Z,31.01
2017-08-02T12:50:35.188Z,30.99
2017-08-02T12:51:35.217Z,31.01
2017-08-02T12:52:49.852Z,30.7
2017-08-02T12:54:35.321Z,30.7
2017-08-02T12:55:35.345Z,30.67
2017-08-02T12:56:35.371Z,30.42
2017-08-02T12:57:35.408Z,30.1
2017-08-02T12:58:35.438Z,30.15
2017-08-02T12:59:35.450Z,29.53
2017-08-02T13:00:35.499Z,29.46
2017-08-02T13:01:35.528Z,29.68
2017-08-02T13:02:35.564Z,29.74
2017-08-02T13:03:35.282Z,30.02
2017-08-02T13:04:35.314Z,30.22
2017-08-02T13:05:35.645Z,30.23
2017-08-02T13:06:35.681Z,30.2
2017-08-02T13:07:35.710Z,29.89
2017-08-02T13:08:50.340Z,29.83
2017-08-02T13:09:35.470Z,29.98
2017-08-02T13:10:35.808Z,29.95
2017-08-02T13:11:35.225Z,29.86
2017-08-02T13:12:35.866Z,29.86
2017-08-02T13:13:35.885Z,29.97
2017-08-02T13:14:35.954Z,29.97
2017-08-02T13:15:35.959Z,30.2
2017-08-02T13:16:35.992Z,30.24
2017-08-02T13:17:36.028Z,30.16
2017-08-02T13:18:50.652Z,30.39
2017-08-02T13:19:36.087Z,30.04
2017-08-02T13:20:36.112Z,30.19
2017-08-02T13:21:36.147Z,30.24
2017-08-02T13:22:36.180Z,30.24
2017-08-02T13:23:36.217Z,30.11
2017-08-02T13:24:50.837Z,30.15
2017-08-02T13:25:36.262Z,30.15
2017-08-02T13:26:36.303Z,30
2017-08-02T13:27:36.322Z,30.34
2017-08-02T13:28:36.056Z,30.42
2017-08-02T13:29:36.382Z,30.65
2017-08-02T13:30:36.433Z,30.67
2017-08-02T13:31:36.154Z,30.67
2017-08-02T13:32:36.502Z,30.64
2017-08-02T13:33:36.203Z,30.54
2017-08-02T13:34:36.549Z,30.64
2017-08-02T13:35:51.176Z,30.7
2017-08-02T13:36:36.602Z,30.82
2017-08-02T13:37:36.022Z,30.84
2017-08-02T13:38:36.676Z,30.89
2017-08-02T13:39:36.388Z,30.91
2017-08-02T13:40:51.334Z,30.95
2017-08-02T13:41:36.762Z,30.91